sensor_id;sensor_type;location;lat;lon;timestamp;pressure;altitude;pressure_sealevel;temperature;humidity
15678;BME280;7939;50.814;6.368;2024-03-17T00:01:00;100645.34;;;13.09;59.09
15678;BME280;7939;50.814;6.368;2024-03-17T00:03:27;100642.78;;;13.09;59.32
15678;BME280;7939;50.814;6.368;2024-03-17T00:05:56;100632.53;;;13.08;58.51
15678;BME280;7939;50.814;6.368;2024-03-17T00:08:23;100633.34;;;13.07;59.59
15678;BME280;7939;50.814;6.368;2024-03-17T00:10:50;100632.50;;;13.03;58.80
15678;BME280;7939;50.814;6.368;2024-03-17T00:13:17;100629.09;;;13.03;58.93
15678;BME280;7939;50.814;6.368;2024-03-17T00:15:43;100629.94;;;13.03;59.12
15678;BME280;7939;50.814;6.368;2024-03-17T00:18:09;100630.81;;;13.02;59.74
15678;BME280;7939;50.814;6.368;2024-03-17T00:20:36;100633.34;;;12.96;58.96
15678;BME280;7939;50.814;6.368;2024-03-17T00:23:05;100633.34;;;12.99;58.86
15678;BME280;7939;50.814;6.368;2024-03-17T00:25:32;100631.63;;;12.98;59.58
15678;BME280;7939;50.814;6.368;2024-03-17T00:27:59;100634.19;;;12.96;59.61
15678;BME280;7939;50.814;6.368;2024-03-17T00:30:25;100627.34;;;12.95;59.51
15678;BME280;7939;50.814;6.368;2024-03-17T00:32:52;100626.47;;;12.93;59.50
15678;BME280;7939;50.814;6.368;2024-03-17T00:35:17;100626.47;;;12.93;58.48
15678;BME280;7939;50.814;6.368;2024-03-17T00:37:47;100611.09;;;12.92;59.23
15678;BME280;7939;50.814;6.368;2024-03-17T00:40:14;100620.47;;;12.88;59.26
15678;BME280;7939;50.814;6.368;2024-03-17T00:42:41;100623.06;;;12.93;58.84
15678;BME280;7939;50.814;6.368;2024-03-17T00:45:08;100617.06;;;12.89;59.50
15678;BME280;7939;50.814;6.368;2024-03-17T00:47:35;100609.38;;;12.89;59.25
15678;BME280;7939;50.814;6.368;2024-03-17T00:50:02;100602.53;;;12.90;58.67
15678;BME280;7939;50.814;6.368;2024-03-17T00:52:28;100608.50;;;12.86;58.32
15678;BME280;7939;50.814;6.368;2024-03-17T00:54:55;100603.34;;;12.84;58.73
15678;BME280;7939;50.814;6.368;2024-03-17T00:57:22;100602.50;;;12.84;58.99
15678;BME280;7939;50.814;6.368;2024-03-17T00:59:49;100593.94;;;12.82;59.33
15678;BME280;7939;50.814;6.368;2024-03-17T01:02:16;100596.53;;;12.83;58.82
15678;BME280;7939;50.814;6.368;2024-03-17T01:04:43;100595.63;;;12.80;59.24
15678;BME280;7939;50.814;6.368;2024-03-17T01:07:09;100591.38;;;12.80;59.10
15678;BME280;7939;50.814;6.368;2024-03-17T01:09:35;100587.91;;;12.74;58.87
15678;BME280;7939;50.814;6.368;2024-03-17T01:12:01;100585.38;;;12.77;59.18
15678;BME280;7939;50.814;6.368;2024-03-17T01:14:30;100584.50;;;12.73;58.86
15678;BME280;7939;50.814;6.368;2024-03-17T01:16:56;100593.03;;;12.74;58.98
15678;BME280;7939;50.814;6.368;2024-03-17T01:19:23;100587.06;;;12.73;58.13
15678;BME280;7939;50.814;6.368;2024-03-17T01:21:49;100573.34;;;12.69;59.12
15678;BME280;7939;50.814;6.368;2024-03-17T01:24:17;100574.25;;;12.70;58.41
15678;BME280;7939;50.814;6.368;2024-03-17T01:26:42;100574.25;;;12.72;58.75
15678;BME280;7939;50.814;6.368;2024-03-17T01:29:10;100569.09;;;12.65;59.02
15678;BME280;7939;50.814;6.368;2024-03-17T01:31:37;100581.06;;;12.66;59.05
15678;BME280;7939;50.814;6.368;2024-03-17T01:34:03;100572.47;;;12.63;59.18
15678;BME280;7939;50.814;6.368;2024-03-17T01:36:29;100569.06;;;12.62;58.56
15678;BME280;7939;50.814;6.368;2024-03-17T01:38:56;100570.78;;;12.62;59.14
15678;BME280;7939;50.814;6.368;2024-03-17T01:41:21;100569.94;;;12.64;58.36
15678;BME280;7939;50.814;6.368;2024-03-17T01:43:48;100563.94;;;12.62;59.64
15678;BME280;7939;50.814;6.368;2024-03-17T01:46:15;100560.50;;;12.60;58.54
15678;BME280;7939;50.814;6.368;2024-03-17T01:48:45;100552.81;;;12.60;58.58
15678;BME280;7939;50.814;6.368;2024-03-17T01:51:11;100555.38;;;12.62;59.05
15678;BME280;7939;50.814;6.368;2024-03-17T01:53:40;100563.06;;;12.60;59.05
15678;BME280;7939;50.814;6.368;2024-03-17T01:56:09;100565.63;;;12.60;58.91
15678;BME280;7939;50.814;6.368;2024-03-17T01:58:36;100561.38;;;12.59;58.86
15678;BME280;7939;50.814;6.368;2024-03-17T02:01:02;100564.75;;;12.55;59.36
15678;BME280;7939;50.814;6.368;2024-03-17T02:03:29;100562.22;;;12.58;58.89
15678;BME280;7939;50.814;6.368;2024-03-17T02:05:57;100556.22;;;12.56;58.42
15678;BME280;7939;50.814;6.368;2024-03-17T02:08:24;100556.25;;;12.58;58.91
15678;BME280;7939;50.814;6.368;2024-03-17T02:10:52;100556.22;;;12.56;58.29
15678;BME280;7939;50.814;6.368;2024-03-17T02:13:19;100549.38;;;12.57;59.50
15678;BME280;7939;50.814;6.368;2024-03-17T02:15:47;100552.81;;;12.57;58.64
15678;BME280;7939;50.814;6.368;2024-03-17T02:18:13;100545.97;;;12.52;58.37
15678;BME280;7939;50.814;6.368;2024-03-17T02:20:40;100545.09;;;12.51;58.97
15678;BME280;7939;50.814;6.368;2024-03-17T02:23:22;100539.09;;;12.51;58.07
15678;BME280;7939;50.814;6.368;2024-03-17T02:25:51;100545.06;;;12.48;57.98
15678;BME280;7939;50.814;6.368;2024-03-17T02:28:17;100543.38;;;12.46;59.12
15678;BME280;7939;50.814;6.368;2024-03-17T02:30:44;100544.22;;;12.49;58.54
15678;BME280;7939;50.814;6.368;2024-03-17T02:33:10;100547.63;;;12.45;57.86
15678;BME280;7939;50.814;6.368;2024-03-17T02:35:37;100545.03;;;12.40;57.81
15678;BME280;7939;50.814;6.368;2024-03-17T02:38:02;100539.09;;;12.45;59.17
15678;BME280;7939;50.814;6.368;2024-03-17T02:40:31;100534.78;;;12.43;58.96
15678;BME280;7939;50.814;6.368;2024-03-17T02:42:56;100532.22;;;12.42;58.51
15678;BME280;7939;50.814;6.368;2024-03-17T02:45:23;100533.94;;;12.40;58.45
15678;BME280;7939;50.814;6.368;2024-03-17T02:47:50;100529.66;;;12.39;58.07
15678;BME280;7939;50.814;6.368;2024-03-17T02:50:16;100516.81;;;12.37;59.07
15678;BME280;7939;50.814;6.368;2024-03-17T02:52:43;100529.66;;;12.42;58.07
15678;BME280;7939;50.814;6.368;2024-03-17T02:55:10;100522.81;;;12.38;59.21
15678;BME280;7939;50.814;6.368;2024-03-17T02:57:38;100522.81;;;12.38;58.15
15678;BME280;7939;50.814;6.368;2024-03-17T03:00:07;100525.38;;;12.35;58.50
15678;BME280;7939;50.814;6.368;2024-03-17T03:02:38;100520.25;;;12.35;58.36
15678;BME280;7939;50.814;6.368;2024-03-17T03:05:05;100518.53;;;12.34;58.77
15678;BME280;7939;50.814;6.368;2024-03-17T03:07:32;100518.53;;;12.34;59.16
15678;BME280;7939;50.814;6.368;2024-03-17T03:09:58;100517.66;;;12.32;59.22
15678;BME280;7939;50.814;6.368;2024-03-17T03:12:25;100519.34;;;12.28;58.43
15678;BME280;7939;50.814;6.368;2024-03-17T03:14:53;100521.91;;;12.30;58.79
15678;BME280;7939;50.814;6.368;2024-03-17T03:17:20;100517.66;;;12.32;58.28
15678;BME280;7939;50.814;6.368;2024-03-17T03:19:46;100516.78;;;12.27;58.97
15678;BME280;7939;50.814;6.368;2024-03-17T03:22:13;100523.63;;;12.28;58.61
15678;BME280;7939;50.814;6.368;2024-03-17T03:24:40;100528.72;;;12.25;58.87
15678;BME280;7939;50.814;6.368;2024-03-17T03:27:07;100529.56;;;12.24;58.44
15678;BME280;7939;50.814;6.368;2024-03-17T03:29:34;100527.00;;;12.24;58.25
15678;BME280;7939;50.814;6.368;2024-03-17T03:32:02;100527.00;;;12.25;59.22
15678;BME280;7939;50.814;6.368;2024-03-17T03:34:29;100527.88;;;12.23;58.77
15678;BME280;7939;50.814;6.368;2024-03-17T03:36:55;100531.28;;;12.23;59.05
15678;BME280;7939;50.814;6.368;2024-03-17T03:39:22;100526.16;;;12.23;59.14
15678;BME280;7939;50.814;6.368;2024-03-17T03:41:51;100519.31;;;12.21;58.97
15678;BME280;7939;50.814;6.368;2024-03-17T03:44:17;100521.88;;;12.22;58.17
15678;BME280;7939;50.814;6.368;2024-03-17T03:46:44;100518.47;;;12.25;59.54
15678;BME280;7939;50.814;6.368;2024-03-17T03:49:13;100515.91;;;12.22;59.25
15678;BME280;7939;50.814;6.368;2024-03-17T03:51:40;100509.94;;;12.23;59.11
15678;BME280;7939;50.814;6.368;2024-03-17T03:54:06;100506.50;;;12.22;59.23
15678;BME280;7939;50.814;6.368;2024-03-17T03:56:33;100503.91;;;12.19;59.49
15678;BME280;7939;50.814;6.368;2024-03-17T03:59:01;100497.13;;;12.23;58.77
15678;BME280;7939;50.814;6.368;2024-03-17T04:01:28;100498.81;;;12.24;58.32
15678;BME280;7939;50.814;6.368;2024-03-17T04:03:55;100498.81;;;12.24;58.95
15678;BME280;7939;50.814;6.368;2024-03-17T04:06:23;100498.81;;;12.22;58.35
15678;BME280;7939;50.814;6.368;2024-03-17T04:08:49;100501.38;;;12.22;59.44
15678;BME280;7939;50.814;6.368;2024-03-17T04:11:16;100500.53;;;12.25;58.08
15678;BME280;7939;50.814;6.368;2024-03-17T04:13:43;100497.13;;;12.24;59.14
15678;BME280;7939;50.814;6.368;2024-03-17T04:16:09;100488.56;;;12.24;59.24
15678;BME280;7939;50.814;6.368;2024-03-17T04:18:37;100483.44;;;12.22;58.55
15678;BME280;7939;50.814;6.368;2024-03-17T04:21:05;100482.59;;;12.20;59.37
15678;BME280;7939;50.814;6.368;2024-03-17T04:23:34;100479.19;;;12.23;58.25
15678;BME280;7939;50.814;6.368;2024-03-17T04:26:01;100477.47;;;12.20;59.08
15678;BME280;7939;50.814;6.368;2024-03-17T04:28:29;100480.84;;;12.19;58.87
15678;BME280;7939;50.814;6.368;2024-03-17T04:31:03;100476.59;;;12.15;58.56
15678;BME280;7939;50.814;6.368;2024-03-17T04:33:31;100472.31;;;12.15;58.63
15678;BME280;7939;50.814;6.368;2024-03-17T04:35:58;100469.75;;;12.14;58.65
15678;BME280;7939;50.814;6.368;2024-03-17T04:38:24;100466.34;;;12.15;59.90
15678;BME280;7939;50.814;6.368;2024-03-17T04:40:53;100461.22;;;12.17;59.24
15678;BME280;7939;50.814;6.368;2024-03-17T04:43:28;100462.06;;;12.17;59.30
15678;BME280;7939;50.814;6.368;2024-03-17T04:46:01;100462.91;;;12.16;59.10
15678;BME280;7939;50.814;6.368;2024-03-17T04:48:30;100457.78;;;12.16;59.27
15678;BME280;7939;50.814;6.368;2024-03-17T04:50:57;100459.50;;;12.14;58.55
15678;BME280;7939;50.814;6.368;2024-03-17T04:53:24;100454.38;;;12.17;58.79
15678;BME280;7939;50.814;6.368;2024-03-17T04:55:59;100461.22;;;12.15;59.16
15678;BME280;7939;50.814;6.368;2024-03-17T04:58:27;100456.94;;;12.14;58.71
15678;BME280;7939;50.814;6.368;2024-03-17T05:00:53;100453.53;;;12.15;58.59
15678;BME280;7939;50.814;6.368;2024-03-17T05:03:20;100456.91;;;12.12;59.14
15678;BME280;7939;50.814;6.368;2024-03-17T05:05:47;100455.22;;;12.11;59.67
15678;BME280;7939;50.814;6.368;2024-03-17T05:08:13;100452.66;;;12.13;59.12
15678;BME280;7939;50.814;6.368;2024-03-17T05:10:40;100457.78;;;12.13;59.14
15678;BME280;7939;50.814;6.368;2024-03-17T05:13:08;100456.06;;;12.12;59.86
15678;BME280;7939;50.814;6.368;2024-03-17T05:15:36;100456.91;;;12.11;58.82
15678;BME280;7939;50.814;6.368;2024-03-17T05:18:03;100467.16;;;12.09;58.93
15678;BME280;7939;50.814;6.368;2024-03-17T05:20:31;100457.78;;;12.07;58.97
15678;BME280;7939;50.814;6.368;2024-03-17T05:22:57;100465.44;;;12.11;58.66
15678;BME280;7939;50.814;6.368;2024-03-17T05:25:24;100463.72;;;12.06;59.47
15678;BME280;7939;50.814;6.368;2024-03-17T05:27:51;100459.44;;;12.06;59.58
15678;BME280;7939;50.814;6.368;2024-03-17T05:30:19;100459.44;;;12.06;59.79
15678;BME280;7939;50.814;6.368;2024-03-17T05:32:44;100462.00;;;12.06;59.33
15678;BME280;7939;50.814;6.368;2024-03-17T05:35:11;100462.88;;;12.04;59.45
15678;BME280;7939;50.814;6.368;2024-03-17T05:37:38;100463.75;;;12.07;59.20
15678;BME280;7939;50.814;6.368;2024-03-17T05:40:07;100457.78;;;12.07;59.10
15678;BME280;7939;50.814;6.368;2024-03-17T05:42:37;100459.44;;;12.03;59.43
15678;BME280;7939;50.814;6.368;2024-03-17T05:45:04;100460.31;;;12.05;59.12
15678;BME280;7939;50.814;6.368;2024-03-17T05:47:33;100467.97;;;12.05;59.54
15678;BME280;7939;50.814;6.368;2024-03-17T05:49:59;100471.41;;;12.03;59.19
15678;BME280;7939;50.814;6.368;2024-03-17T05:52:26;100459.44;;;12.02;59.04
15678;BME280;7939;50.814;6.368;2024-03-17T05:54:53;100470.56;;;12.01;59.77
15678;BME280;7939;50.814;6.368;2024-03-17T05:57:21;100467.09;;;12.00;59.37
15678;BME280;7939;50.814;6.368;2024-03-17T05:59:48;100473.09;;;12.02;59.26
15678;BME280;7939;50.814;6.368;2024-03-17T06:02:15;100467.09;;;12.00;59.78
15678;BME280;7939;50.814;6.368;2024-03-17T06:04:43;100461.13;;;12.00;59.58
15678;BME280;7939;50.814;6.368;2024-03-17T06:07:09;100460.28;;;11.98;59.47
15678;BME280;7939;50.814;6.368;2024-03-17T06:09:36;100456.00;;;11.97;59.26
15678;BME280;7939;50.814;6.368;2024-03-17T06:12:03;100455.16;;;11.98;59.60
15678;BME280;7939;50.814;6.368;2024-03-17T06:14:30;100458.56;;;11.95;59.44
15678;BME280;7939;50.814;6.368;2024-03-17T06:16:59;100452.59;;;11.96;59.39
15678;BME280;7939;50.814;6.368;2024-03-17T06:19:26;100454.28;;;11.99;59.43
15678;BME280;7939;50.814;6.368;2024-03-17T06:21:54;100462.81;;;11.95;59.62
15678;BME280;7939;50.814;6.368;2024-03-17T06:24:21;100459.41;;;11.97;59.74
15678;BME280;7939;50.814;6.368;2024-03-17T06:26:50;100457.72;;;11.99;59.81
15678;BME280;7939;50.814;6.368;2024-03-17T06:29:17;100456.00;;;11.95;59.87
15678;BME280;7939;50.814;6.368;2024-03-17T06:31:45;100444.03;;;11.96;59.36
15678;BME280;7939;50.814;6.368;2024-03-17T06:34:12;100448.31;;;11.97;59.06
15678;BME280;7939;50.814;6.368;2024-03-17T06:36:41;100453.44;;;11.98;59.85
15678;BME280;7939;50.814;6.368;2024-03-17T06:39:10;100452.59;;;11.98;59.20
15678;BME280;7939;50.814;6.368;2024-03-17T06:41:41;100438.06;;;11.95;59.14
15678;BME280;7939;50.814;6.368;2024-03-17T06:44:08;100432.09;;;11.95;60.12
15678;BME280;7939;50.814;6.368;2024-03-17T06:46:35;100430.34;;;11.92;59.85
15678;BME280;7939;50.814;6.368;2024-03-17T06:49:01;100424.41;;;11.95;59.71
15678;BME280;7939;50.814;6.368;2024-03-17T06:51:28;100420.09;;;11.94;59.94
15678;BME280;7939;50.814;6.368;2024-03-17T06:53:55;100409.88;;;11.94;59.83
15678;BME280;7939;50.814;6.368;2024-03-17T06:56:23;100410.72;;;11.94;59.89
15678;BME280;7939;50.814;6.368;2024-03-17T06:58:50;100408.16;;;11.94;59.78
15678;BME280;7939;50.814;6.368;2024-03-17T07:01:17;100413.31;;;11.97;59.08
15678;BME280;7939;50.814;6.368;2024-03-17T07:03:45;100414.16;;;11.99;59.59
15678;BME280;7939;50.814;6.368;2024-03-17T07:06:11;100417.56;;;12.00;59.00
15678;BME280;7939;50.814;6.368;2024-03-17T07:08:38;100418.44;;;12.00;60.19
15678;BME280;7939;50.814;6.368;2024-03-17T07:11:06;100429.53;;;11.99;60.16
15678;BME280;7939;50.814;6.368;2024-03-17T07:13:35;100432.09;;;11.99;59.20
15678;BME280;7939;50.814;6.368;2024-03-17T07:16:03;100437.25;;;12.02;59.71
15678;BME280;7939;50.814;6.368;2024-03-17T07:18:32;100441.50;;;12.03;59.49
15678;BME280;7939;50.814;6.368;2024-03-17T07:20:59;100450.06;;;12.04;59.34
15678;BME280;7939;50.814;6.368;2024-03-17T07:23:26;100448.34;;;12.04;59.72
15678;BME280;7939;50.814;6.368;2024-03-17T07:25:53;100456.88;;;12.06;59.05
15678;BME280;7939;50.814;6.368;2024-03-17T07:28:21;100454.34;;;12.08;59.49
15678;BME280;7939;50.814;6.368;2024-03-17T07:30:50;100456.88;;;12.05;59.50
15678;BME280;7939;50.814;6.368;2024-03-17T07:33:17;100452.66;;;12.07;59.68
15678;BME280;7939;50.814;6.368;2024-03-17T07:35:49;100448.38;;;12.07;59.85
15678;BME280;7939;50.814;6.368;2024-03-17T07:38:16;100451.78;;;12.09;59.11
15678;BME280;7939;50.814;6.368;2024-03-17T07:40:43;100437.28;;;12.13;60.11
15678;BME280;7939;50.814;6.368;2024-03-17T07:43:10;100437.28;;;12.11;60.00
15678;BME280;7939;50.814;6.368;2024-03-17T07:45:37;100448.41;;;12.13;60.34
15678;BME280;7939;50.814;6.368;2024-03-17T07:48:06;100444.13;;;12.15;59.60
15678;BME280;7939;50.814;6.368;2024-03-17T07:50:33;100445.84;;;12.18;59.65
15678;BME280;7939;50.814;6.368;2024-03-17T07:53:00;100445.84;;;12.15;59.15
15678;BME280;7939;50.814;6.368;2024-03-17T07:55:27;100441.56;;;12.15;60.16
15678;BME280;7939;50.814;6.368;2024-03-17T07:57:56;100444.16;;;12.20;59.62
15678;BME280;7939;50.814;6.368;2024-03-17T08:00:22;100434.75;;;12.14;60.04
15678;BME280;7939;50.814;6.368;2024-03-17T08:02:49;100437.31;;;12.14;58.92
15678;BME280;7939;50.814;6.368;2024-03-17T08:05:17;100432.16;;;12.11;59.10
15678;BME280;7939;50.814;6.368;2024-03-17T08:07:44;100436.44;;;12.15;59.80
15678;BME280;7939;50.814;6.368;2024-03-17T08:10:10;100436.44;;;12.17;60.08
15678;BME280;7939;50.814;6.368;2024-03-17T08:12:37;100437.31;;;12.21;59.73
15678;BME280;7939;50.814;6.368;2024-03-17T08:15:04;100437.31;;;12.24;60.19
15678;BME280;7939;50.814;6.368;2024-03-17T08:17:31;100437.28;;;12.10;60.05
15678;BME280;7939;50.814;6.368;2024-03-17T08:19:58;100441.56;;;12.19;59.70
15678;BME280;7939;50.814;6.368;2024-03-17T08:22:26;100436.47;;;12.22;60.08
15678;BME280;7939;50.814;6.368;2024-03-17T08:24:52;100431.34;;;12.25;60.98
15678;BME280;7939;50.814;6.368;2024-03-17T08:27:19;100422.81;;;12.29;60.76
15678;BME280;7939;50.814;6.368;2024-03-17T08:29:46;100409.13;;;12.25;59.81
15678;BME280;7939;50.814;6.368;2024-03-17T08:32:13;100399.75;;;12.29;59.94
15678;BME280;7939;50.814;6.368;2024-03-17T08:34:40;100397.19;;;12.32;60.27
15678;BME280;7939;50.814;6.368;2024-03-17T08:37:06;100404.03;;;12.28;60.01
15678;BME280;7939;50.814;6.368;2024-03-17T08:39:35;100411.72;;;12.31;59.59
15678;BME280;7939;50.814;6.368;2024-03-17T08:42:02;100405.75;;;12.32;60.20
15678;BME280;7939;50.814;6.368;2024-03-17T08:44:29;100402.31;;;12.32;59.96
15678;BME280;7939;50.814;6.368;2024-03-17T08:46:55;100404.94;;;12.39;60.06
15678;BME280;7939;50.814;6.368;2024-03-17T08:49:23;100402.34;;;12.33;60.80
15678;BME280;7939;50.814;6.368;2024-03-17T08:51:50;100388.69;;;12.39;61.04
15678;BME280;7939;50.814;6.368;2024-03-17T08:54:16;100394.66;;;12.36;60.43
15678;BME280;7939;50.814;6.368;2024-03-17T08:56:44;100390.38;;;12.37;61.68
15678;BME280;7939;50.814;6.368;2024-03-17T08:59:12;100391.25;;;12.48;60.75
15678;BME280;7939;50.814;6.368;2024-03-17T09:01:38;100390.41;;;12.49;60.71
15678;BME280;7939;50.814;6.368;2024-03-17T09:04:05;100389.56;;;12.55;61.70
15678;BME280;7939;50.814;6.368;2024-03-17T09:06:32;100398.97;;;12.51;60.49
15678;BME280;7939;50.814;6.368;2024-03-17T09:09:00;100398.94;;;12.50;60.92
15678;BME280;7939;50.814;6.368;2024-03-17T09:11:28;100398.13;;;12.54;61.42
15678;BME280;7939;50.814;6.368;2024-03-17T09:13:56;100395.56;;;12.54;60.67
15678;BME280;7939;50.814;6.368;2024-03-17T09:16:24;100408.38;;;12.54;61.07
15678;BME280;7939;50.814;6.368;2024-03-17T09:18:51;100404.94;;;12.56;61.97
15678;BME280;7939;50.814;6.368;2024-03-17T09:21:17;100402.38;;;12.56;62.27
15678;BME280;7939;50.814;6.368;2024-03-17T09:23:44;100411.81;;;12.63;62.10
15678;BME280;7939;50.814;6.368;2024-03-17T09:26:11;100404.13;;;12.66;61.41
15678;BME280;7939;50.814;6.368;2024-03-17T09:28:39;100406.69;;;12.65;61.88
15678;BME280;7939;50.814;6.368;2024-03-17T09:31:07;100405.84;;;12.66;62.02
15678;BME280;7939;50.814;6.368;2024-03-17T09:33:35;100410.97;;;12.71;61.46
15678;BME280;7939;50.814;6.368;2024-03-17T09:36:03;100404.13;;;12.73;62.96
15678;BME280;7939;50.814;6.368;2024-03-17T09:38:31;100409.25;;;12.74;61.89
15678;BME280;7939;50.814;6.368;2024-03-17T09:40:58;100407.56;;;12.78;62.74
15678;BME280;7939;50.814;6.368;2024-03-17T09:43:27;100405.00;;;12.84;62.49
15678;BME280;7939;50.814;6.368;2024-03-17T09:45:54;100400.72;;;12.84;62.37
15678;BME280;7939;50.814;6.368;2024-03-17T09:48:25;100400.75;;;12.89;62.57
15678;BME280;7939;50.814;6.368;2024-03-17T09:50:54;100394.72;;;12.88;63.02
15678;BME280;7939;50.814;6.368;2024-03-17T09:53:23;100401.56;;;12.92;62.91
15678;BME280;7939;50.814;6.368;2024-03-17T09:55:51;100407.56;;;12.98;62.31
15678;BME280;7939;50.814;6.368;2024-03-17T09:58:19;100413.56;;;12.96;61.91
15678;BME280;7939;50.814;6.368;2024-03-17T10:00:46;100403.31;;;13.01;62.35
15678;BME280;7939;50.814;6.368;2024-03-17T10:03:40;100405.00;;;13.07;61.97
15678;BME280;7939;50.814;6.368;2024-03-17T10:06:08;100396.44;;;13.12;62.21
15678;BME280;7939;50.814;6.368;2024-03-17T10:08:41;100402.44;;;13.17;61.36
15678;BME280;7939;50.814;6.368;2024-03-17T10:11:08;100402.47;;;13.20;61.76
15678;BME280;7939;50.814;6.368;2024-03-17T10:13:35;100405.88;;;13.22;62.27
15678;BME280;7939;50.814;6.368;2024-03-17T10:16:02;100405.88;;;13.26;62.25
15678;BME280;7939;50.814;6.368;2024-03-17T10:18:30;100399.88;;;13.25;62.26
15678;BME280;7939;50.814;6.368;2024-03-17T10:20:58;100403.31;;;13.29;62.19
15678;BME280;7939;50.814;6.368;2024-03-17T10:23:26;100401.59;;;13.31;61.77
15678;BME280;7939;50.814;6.368;2024-03-17T10:25:53;100400.75;;;13.35;61.52
15678;BME280;7939;50.814;6.368;2024-03-17T10:28:20;100398.19;;;13.35;61.85
15678;BME280;7939;50.814;6.368;2024-03-17T10:30:57;100397.31;;;13.42;61.48
15678;BME280;7939;50.814;6.368;2024-03-17T10:33:25;100392.16;;;13.45;61.55
15678;BME280;7939;50.814;6.368;2024-03-17T10:36:00;100403.28;;;13.50;61.79
15678;BME280;7939;50.814;6.368;2024-03-17T10:38:28;100402.41;;;13.49;61.88
15678;BME280;7939;50.814;6.368;2024-03-17T10:40:54;100397.28;;;13.51;61.96
15678;BME280;7939;50.814;6.368;2024-03-17T10:43:21;100393.00;;;13.55;61.51
15678;BME280;7939;50.814;6.368;2024-03-17T10:45:52;100390.44;;;13.53;62.23
15678;BME280;7939;50.814;6.368;2024-03-17T10:48:20;100399.84;;;13.54;61.58
15678;BME280;7939;50.814;6.368;2024-03-17T10:50:49;100394.69;;;13.56;61.99
15678;BME280;7939;50.814;6.368;2024-03-17T10:53:20;100400.69;;;13.55;62.03
15678;BME280;7939;50.814;6.368;2024-03-17T10:56:00;100397.25;;;13.62;61.62
15678;BME280;7939;50.814;6.368;2024-03-17T10:58:33;100400.69;;;13.59;61.73
15678;BME280;7939;50.814;6.368;2024-03-17T11:01:01;100399.81;;;13.63;61.62
15678;BME280;7939;50.814;6.368;2024-03-17T11:03:31;100394.69;;;13.68;61.52
15678;BME280;7939;50.814;6.368;2024-03-17T11:05:59;100399.81;;;13.69;61.30
15678;BME280;7939;50.814;6.368;2024-03-17T11:08:27;100393.81;;;13.67;61.46
15678;BME280;7939;50.814;6.368;2024-03-17T11:10:54;100404.94;;;13.69;61.70
15678;BME280;7939;50.814;6.368;2024-03-17T11:13:25;100399.81;;;13.69;60.73
15678;BME280;7939;50.814;6.368;2024-03-17T11:15:52;100391.25;;;13.67;61.97
15678;BME280;7939;50.814;6.368;2024-03-17T11:18:39;100398.06;;;13.74;60.63
15678;BME280;7939;50.814;6.368;2024-03-17T11:21:10;100405.78;;;13.73;61.03
15678;BME280;7939;50.814;6.368;2024-03-17T11:23:57;100400.66;;;13.74;61.40
15678;BME280;7939;50.814;6.368;2024-03-17T11:26:30;100395.50;;;13.79;60.64
15678;BME280;7939;50.814;6.368;2024-03-17T11:28:57;100398.06;;;13.79;60.81
15678;BME280;7939;50.814;6.368;2024-03-17T11:31:47;100393.78;;;13.84;60.74
15678;BME280;7939;50.814;6.368;2024-03-17T11:34:34;100390.31;;;13.88;60.73
15678;BME280;7939;50.814;6.368;2024-03-17T11:37:02;100392.91;;;13.91;60.78
15678;BME280;7939;50.814;6.368;2024-03-17T11:39:51;100397.16;;;13.94;60.61
15678;BME280;7939;50.814;6.368;2024-03-17T11:42:22;100382.63;;;13.91;61.43
15678;BME280;7939;50.814;6.368;2024-03-17T11:45:02;100380.03;;;13.93;60.72
15678;BME280;7939;50.814;6.368;2024-03-17T11:47:36;100387.75;;;13.96;61.09
15678;BME280;7939;50.814;6.368;2024-03-17T11:50:06;100375.75;;;13.92;61.37
15678;BME280;7939;50.814;6.368;2024-03-17T11:52:35;100377.47;;;13.91;61.85
15678;BME280;7939;50.814;6.368;2024-03-17T11:55:03;100373.19;;;13.93;61.63
15678;BME280;7939;50.814;6.368;2024-03-17T11:57:30;100381.72;;;14.00;61.48
15678;BME280;7939;50.814;6.368;2024-03-17T11:59:56;100368.88;;;14.03;61.35
15678;BME280;7939;50.814;6.368;2024-03-17T12:02:24;100368.84;;;14.01;61.14
15678;BME280;7939;50.814;6.368;2024-03-17T12:04:52;100359.41;;;14.05;61.33
15678;BME280;7939;50.814;6.368;2024-03-17T12:07:20;100355.97;;;14.09;61.18
15678;BME280;7939;50.814;6.368;2024-03-17T12:09:47;100359.41;;;14.10;61.06
15678;BME280;7939;50.814;6.368;2024-03-17T12:12:17;100352.53;;;14.12;60.99
15678;BME280;7939;50.814;6.368;2024-03-17T12:14:44;100350.81;;;14.12;60.85
15678;BME280;7939;50.814;6.368;2024-03-17T12:17:13;100342.28;;;14.10;61.38
15678;BME280;7939;50.814;6.368;2024-03-17T12:19:39;100341.41;;;14.14;61.76
15678;BME280;7939;50.814;6.368;2024-03-17T12:22:08;100337.94;;;14.18;61.34
15678;BME280;7939;50.814;6.368;2024-03-17T12:24:35;100333.63;;;14.22;61.25
15678;BME280;7939;50.814;6.368;2024-03-17T12:27:05;100324.16;;;14.25;60.99
15678;BME280;7939;50.814;6.368;2024-03-17T12:29:34;100318.22;;;14.22;61.33
15678;BME280;7939;50.814;6.368;2024-03-17T12:32:02;100313.03;;;14.25;61.22
15678;BME280;7939;50.814;6.368;2024-03-17T12:34:32;100311.31;;;14.30;61.04
15678;BME280;7939;50.814;6.368;2024-03-17T12:37:00;100299.31;;;14.27;60.34
15678;BME280;7939;50.814;6.368;2024-03-17T12:39:28;100297.56;;;14.34;60.25
15678;BME280;7939;50.814;6.368;2024-03-17T12:42:02;100289.00;;;14.34;60.24
15678;BME280;7939;50.814;6.368;2024-03-17T12:44:28;100283.81;;;14.37;60.18
15678;BME280;7939;50.814;6.368;2024-03-17T12:46:57;100280.41;;;14.36;60.89
15678;BME280;7939;50.814;6.368;2024-03-17T12:49:23;100278.69;;;14.40;60.69
15678;BME280;7939;50.814;6.368;2024-03-17T12:51:51;100277.84;;;14.35;60.87
15678;BME280;7939;50.814;6.368;2024-03-17T12:54:20;100274.41;;;14.36;61.23
15678;BME280;7939;50.814;6.368;2024-03-17T12:56:49;100276.09;;;14.40;60.50
15678;BME280;7939;50.814;6.368;2024-03-17T12:59:40;100270.09;;;14.41;61.06
15678;BME280;7939;50.814;6.368;2024-03-17T13:02:25;100273.53;;;14.40;60.57
15678;BME280;7939;50.814;6.368;2024-03-17T13:05:16;100269.19;;;14.43;60.69